Time;durP1;ratioP1;P1;durP2;ratioP2;P2;SDS_P1;SDS_P2;PMS_P1;PMS_P2;Temp;Humidity;BMP_temperature;BMP_pressure;BME280_temperature;BME280_humidity;BME280_pressure;Samples;Min_cycle;Max_cycle;Signal;HPM_P1;HPM_P2
2022/11/04 00:02:07;;;;;;;46.95;26.67;;;;;;;8.59;77.54;97766.84;10365690;28;20065;-55
2022/11/04 00:08:22;;;;;;;47.60;25.35;;;;;;;8.41;78.23;97762.41;10376588;28;20036;-55
2022/11/04 00:12:24;;;;;;;47.47;27.30;;;;;;;8.25;78.40;97750.22;10377036;28;20468;-56
2022/11/04 00:17:24;;;;;;;49.83;29.05;;;;;;;8.21;78.72;97756.22;10376491;28;20402;-55
2022/11/04 00:38:16;;;;;;;32.28;18.58;;;;;;;8.17;79.55;97757.03;10376691;28;20072;-56
2022/11/04 00:43:15;;;;;;;41.33;20.48;;;;;;;8.14;79.68;97763.03;10375183;28;20060;-56
2022/11/04 00:48:14;;;;;;;34.47;18.15;;;;;;;8.18;79.42;97744.13;10374967;28;20080;-56
2022/11/04 00:53:13;;;;;;;38.85;20.25;;;;;;;8.18;79.48;97738.09;10375414;28;20079;-56
2022/11/04 00:58:11;;;;;;;36.25;22.20;;;;;;;8.15;79.34;97736.34;10375294;28;20140;-55
2022/11/04 01:03:10;;;;;;;40.05;21.88;;;;;;;8.02;80.24;97722.47;10374450;28;20120;-56
2022/11/04 01:08:09;;;;;;;39.05;22.85;;;;;;;8.04;80.00;97715.59;10373025;28;20120;-56
2022/11/04 01:13:09;;;;;;;42.80;23.33;;;;;;;8.02;80.80;97726.78;10374187;28;20028;-56
2022/11/04 01:18:08;;;;;;;45.17;25.85;;;;;;;7.93;81.14;97717.22;10374965;28;20060;-56
2022/11/04 01:23:07;;;;;;;48.28;28.00;;;;;;;7.93;80.82;97722.38;10373643;28;20057;-56
2022/11/04 01:28:06;;;;;;;49.83;27.75;;;;;;;7.93;81.42;97717.22;10373691;28;20039;-56
2022/11/04 01:33:05;;;;;;;48.15;27.85;;;;;;;7.80;81.97;97717.94;10373466;28;20515;-56
2022/11/04 01:38:04;;;;;;;52.22;29.92;;;;;;;7.78;81.47;97712.78;10374102;28;20029;-55
2022/11/04 01:43:11;;;;;;;56.85;30.67;;;;;;;7.77;81.75;97700.69;10373143;28;20501;-56
2022/11/04 01:48:21;;;;;;;52.83;29.55;;;;;;;7.76;81.84;97687.78;10373348;28;20076;-56
2022/11/04 01:53:28;;;;;;;53.08;29.67;;;;;;;7.73;81.43;97682.56;10372814;28;20075;-56
2022/11/04 01:58:30;;;;;;;44.92;25.48;;;;;;;7.71;81.78;97684.28;10372125;28;20057;-56
2022/11/04 02:03:33;;;;;;;43.92;24.42;;;;;;;7.69;81.55;97668.78;10372689;28;20360;-55
2022/11/04 02:08:34;;;;;;;45.92;24.77;;;;;;;7.63;82.10;97677.31;10370782;28;20072;-55
2022/11/04 02:13:35;;;;;;;44.72;27.48;;;;;;;7.58;82.59;97673.84;10372549;28;20065;-56
2022/11/04 02:19:02;;;;;;;48.85;26.52;;;;;;;7.49;82.72;97668.56;10372850;28;20063;-56
2022/11/04 02:24:06;;;;;;;51.17;28.70;;;;;;;7.45;82.74;97656.47;10374657;28;20071;-56
2022/11/04 02:29:05;;;;;;;50.40;28.25;;;;;;;7.43;82.39;97663.38;10380345;28;20091;-56
2022/11/04 02:34:25;;;;;;;49.47;27.10;;;;;;;7.36;83.48;97662.41;10380432;28;20028;-55
2022/11/04 02:39:33;;;;;;;44.00;26.08;;;;;;;7.30;82.92;97658.91;10379832;28;20079;-56
2022/11/04 02:44:40;;;;;;;44.75;25.55;;;;;;;7.30;83.23;97669.22;10380165;28;20493;-55
2022/11/04 02:49:46;;;;;;;49.38;26.98;;;;;;;7.19;83.77;97651.03;10379755;28;20076;-56
2022/11/04 02:54:59;;;;;;;55.67;28.73;;;;;;;7.17;83.74;97645.88;10380031;28;20083;-56
2022/11/04 03:00:02;;;;;;;44.33;26.80;;;;;;;7.09;84.44;97650.06;10379579;28;20071;-56
2022/11/04 03:05:04;;;;;;;47.97;27.38;;;;;;;7.01;85.24;97654.28;10379225;28;20523;-55
2022/11/04 03:10:43;;;;;;;49.47;27.02;;;;;;;7.01;85.70;97651.72;10378986;28;20067;-56
2022/11/04 03:15:50;;;;;;;46.75;26.23;;;;;;;6.87;85.10;97655.84;10332694;28;20100;-56
2022/11/04 03:20:51;;;;;;;42.58;24.55;;;;;;;6.66;85.67;97657.31;10368794;28;20398;-56
2022/11/04 03:25:56;;;;;;;47.45;28.17;;;;;;;6.52;85.02;97651.09;10378460;28;20524;-55
2022/11/04 03:31:03;;;;;;;49.40;26.17;;;;;;;6.33;85.51;97657.72;10378130;28;20072;-55
2022/11/04 03:36:03;;;;;;;48.28;26.02;;;;;;;6.25;85.17;97647.28;10377883;28;20499;-56
2022/11/04 03:41:08;;;;;;;57.85;27.42;;;;;;;6.24;85.59;97642.13;10376331;28;20065;-56
2022/11/04 03:46:07;;;;;;;60.03;29.60;;;;;;;6.14;85.31;97648.84;10375883;28;20052;-56
2022/11/04 03:51:08;;;;;;;58.83;30.02;;;;;;;6.12;85.82;97635.09;10375085;28;20156;-56
2022/11/04 03:56:20;;;;;;;52.45;30.27;;;;;;;6.05;86.21;97635.84;10375798;28;20072;-55
2022/11/04 04:01:25;;;;;;;59.92;32.55;;;;;;;6.02;86.96;97641.78;10375205;28;20064;-55
2022/11/04 04:06:33;;;;;;;62.30;33.05;;;;;;;6.05;87.08;97644.44;10334779;28;20132;-55
2022/11/04 04:12:09;;;;;;;75.63;36.42;;;;;;;6.02;87.98;97628.06;10333946;28;20125;-56
2022/11/04 04:17:31;;;;;;;79.38;39.72;;;;;;;5.96;87.96;97621.97;10327194;28;20101;-56
2022/11/04 04:22:39;;;;;;;76.20;41.25;;;;;;;5.95;89.11;97627.09;10334435;28;20064;-56
2022/11/04 04:27:39;;;;;;;88.57;40.63;;;;;;;5.88;89.19;97633.00;10338340;28;20488;-56
2022/11/04 04:32:47;;;;;;;85.70;41.53;;;;;;;5.88;89.28;97633.00;10373453;28;20095;-56
2022/11/04 04:37:47;;;;;;;83.82;43.35;;;;;;;5.84;88.99;97621.78;10375621;28;20071;-55
2022/11/04 04:48:05;;;;;;;67.05;36.65;;;;;;;5.78;88.86;97634.56;10373095;28;20077;-56
2022/11/04 04:53:04;;;;;;;77.55;37.42;;;;;;;5.76;89.42;97618.22;10373598;28;20496;-55
2022/11/04 04:58:03;;;;;;;83.20;40.70;;;;;;;5.74;88.78;97630.19;10373365;28;20079;-56
2022/11/04 05:03:01;;;;;;;75.70;37.55;;;;;;;5.74;88.92;97625.03;10372417;28;20040;-55
2022/11/04 05:08:05;;;;;;;75.15;34.70;;;;;;;5.72;88.91;97629.34;10373672;28;20028;-56
2022/11/04 05:18:21;;;;;;;71.88;34.10;;;;;;;5.51;89.86;97628.13;10372760;28;20064;-54
2022/11/04 05:23:20;;;;;;;64.18;33.08;;;;;;;5.48;90.54;97643.50;10372520;28;20064;-54
2022/11/04 05:28:19;;;;;;;86.85;33.53;;;;;;;5.57;90.87;97641.94;10371692;28;20073;-54
2022/11/04 05:33:18;;;;;;;65.80;36.35;;;;;;;5.42;91.41;97616.81;10371010;28;20037;-54
2022/11/04 05:38:17;;;;;;;64.75;34.08;;;;;;;5.57;91.54;97657.38;10368035;28;20520;-54
2022/11/04 05:43:16;;;;;;;72.15;38.97;;;;;;;5.66;91.46;97660.97;10367071;28;20502;-54
2022/11/04 05:48:15;;;;;;;64.72;35.13;;;;;;;5.70;91.23;97657.63;10368384;28;20048;-54
2022/11/04 05:53:14;;;;;;;72.22;36.17;;;;;;;5.80;91.08;97656.06;10370958;28;20033;-54
2022/11/04 05:58:13;;;;;;;88.40;44.10;;;;;;;5.94;90.40;97664.00;10358034;28;20039;-54
2022/11/04 06:03:12;;;;;;;76.38;43.90;;;;;;;6.11;89.93;97657.38;10369508;28;20033;-54
2022/11/04 06:08:11;;;;;;;75.85;40.58;;;;;;;6.22;89.88;97660.13;10371480;28;20044;-54
2022/11/04 06:13:10;;;;;;;67.63;37.45;;;;;;;6.35;90.09;97661.16;10370433;28;20035;-54
2022/11/04 06:18:08;;;;;;;80.38;37.90;;;;;;;6.45;90.09;97660.47;10370451;28;20021;-54
2022/11/04 06:23:07;;;;;;;66.20;38.03;;;;;;;6.55;89.85;97661.44;10371031;28;20116;-54
2022/11/04 06:28:06;;;;;;;77.93;40.60;;;;;;;6.68;89.89;97662.47;10370311;28;20028;-54
2022/11/04 06:33:05;;;;;;;67.28;37.10;;;;;;;6.85;89.43;97663.56;10369897;28;20110;-54
2022/11/04 06:38:04;;;;;;;72.43;40.05;;;;;;;6.96;89.50;97655.94;10349409;28;20033;-54
2022/11/04 06:43:03;;;;;;;87.80;46.70;;;;;;;7.09;89.15;97660.38;10355803;28;20504;-54
2022/11/04 06:48:02;;;;;;;69.18;39.80;;;;;;;7.27;88.76;97656.28;10370057;28;20115;-55
2022/11/04 06:53:01;;;;;;;78.20;41.50;;;;;;;7.43;88.64;97647.88;10361835;28;20072;-54
2022/11/04 06:58:00;;;;;;;68.45;36.97;;;;;;;7.64;87.44;97647.22;10369990;28;20021;-54
2022/11/04 07:02:59;;;;;;;51.05;31.60;;;;;;;7.87;86.76;97643.09;10369407;28;20047;-54
2022/11/04 07:07:58;;;;;;;45.38;27.88;;;;;;;8.04;86.53;97625.13;10368621;28;20398;-54
2022/11/04 07:12:57;;;;;;;43.20;28.15;;;;;;;8.26;86.08;97633.03;10375756;28;20029;-54
2022/11/04 07:17:58;;;;;;;64.35;36.42;;;;;;;8.47;85.94;97621.94;10374209;28;20031;-54
2022/11/04 07:22:57;;;;;;;90.22;67.80;;;;;;;8.76;85.69;97629.81;10375655;28;20056;-55
2022/11/04 07:27:56;;;;;;;95.45;64.97;;;;;;;9.00;84.74;97612.69;10376186;28;20107;-54
2022/11/04 07:32:55;;;;;;;121.57;95.97;;;;;;;9.24;84.48;97607.56;10377524;28;20067;-54
2022/11/04 07:37:54;;;;;;;104.18;73.22;;;;;;;9.53;84.40;97589.47;10377799;28;20064;-54
2022/11/04 07:42:53;;;;;;;46.97;27.85;;;;;;;9.83;82.16;97573.94;10376484;28;20024;-54
2022/11/04 07:47:52;;;;;;;37.60;22.65;;;;;;;10.08;80.78;97574.78;10377542;28;20044;-54
2022/11/04 07:52:51;;;;;;;35.78;20.38;;;;;;;10.40;80.55;97560.00;10377601;28;20039;-54
2022/11/04 07:57:50;;;;;;;43.33;20.70;;;;;;;10.80;78.21;97544.25;10376986;28;20033;-54
2022/11/04 08:02:49;;;;;;;42.95;20.92;;;;;;;11.18;77.39;97540.56;10375445;28;20017;-55
2022/11/04 08:07:48;;;;;;;30.90;15.18;;;;;;;11.46;76.04;97536.03;10357270;28;20076;-55
2022/11/04 08:12:49;;;;;;;36.28;16.85;;;;;;;11.68;73.87;97521.09;10348980;28;20061;-54
2022/11/04 08:17:48;;;;;;;33.70;16.80;;;;;;;11.96;72.63;97510.44;10349707;28;20057;-54
2022/11/04 08:22:47;;;;;;;27.95;14.05;;;;;;;12.30;70.44;97508.38;10350249;28;20033;-55
2022/11/04 08:27:47;;;;;;;31.63;16.80;;;;;;;12.67;69.20;97507.03;10367725;28;20040;-54
2022/11/04 08:32:46;;;;;;;33.03;19.40;;;;;;;13.06;68.03;97499.56;10358366;28;20077;-55
2022/11/04 08:37:45;;;;;;;33.35;19.70;;;;;;;13.39;67.16;97490.34;10351150;28;20732;-54
2022/11/04 08:42:44;;;;;;;33.58;19.27;;;;;;;13.62;65.12;97481.31;10353873;28;20032;-55
2022/11/04 08:47:43;;;;;;;32.17;17.00;;;;;;;13.97;63.43;97472.84;10353939;28;20032;-55
2022/11/04 08:52:42;;;;;;;19.73;10.45;;;;;;;14.55;59.26;97462.97;10374842;28;20064;-54
2022/11/04 08:57:41;;;;;;;27.27;11.23;;;;;;;15.21;55.67;97462.34;10338115;28;20047;-55
2022/11/04 09:02:40;;;;;;;21.35;11.30;;;;;;;15.83;53.91;97450.34;10351984;28;20068;-54
2022/11/04 09:07:39;;;;;;;;;;;;;;;16.36;51.59;97458.44;10372773;28;20037;-55
2022/11/04 09:12:38;;;;;;;31.98;10.77;;;;;;;16.74;49.77;97435.50;10361105;28;19913;-55
2022/11/04 09:17:37;;;;;;;;;;;;;;;17.14;48.36;97439.50;10342888;28;20021;-55
2022/11/04 09:22:36;;;;;;;20.77;10.32;;;;;;;17.52;47.03;97419.88;10339377;28;19920;-55
2022/11/04 09:27:34;;;;;;;;;;;;;;;17.78;46.60;97397.16;10339134;28;20480;-55
2022/11/04 09:32:33;;;;;;;35.30;13.40;;;;;;;17.97;46.34;97395.56;10369609;28;20284;-55
2022/11/04 09:37:32;;;;;;;;;;;;;;;18.08;45.81;97389.94;10340068;28;20043;-55
2022/11/04 09:42:31;;;;;;;26.43;12.53;;;;;;;18.23;45.83;97390.28;10344250;28;19909;-55
2022/11/04 09:47:33;;;;;;;32.60;11.98;;;;;;;18.38;45.42;97387.91;10330924;28;20053;-55
2022/11/04 09:52:43;;;;;;;24.00;11.35;;;;;;;18.55;44.93;97361.00;10345371;28;20072;-56
2022/11/04 09:57:42;;;;;;;24.15;11.82;;;;;;;18.82;44.53;97358.22;10337880;28;20508;-56
2022/11/04 10:02:49;;;;;;;23.80;10.88;;;;;;;19.01;43.53;97353.06;10329913;28;20516;-55
2022/11/04 10:08:08;;;;;;;26.67;10.30;;;;;;;19.13;42.86;97351.69;10369075;28;20456;-56
2022/11/04 10:13:09;;;;;;;14.93;9.35;;;;;;;19.36;42.28;97341.03;10370380;28;20534;-56
2022/11/04 10:18:14;;;;;;;20.77;9.93;;;;;;;19.49;41.36;97337.91;10362345;28;20057;-56
2022/11/04 10:23:19;;;;;;;19.60;9.50;;;;;;;19.71;40.72;97337.84;10332266;28;20080;-56
2022/11/04 10:28:24;;;;;;;19.58;9.32;;;;;;;20.00;39.86;97331.25;10339028;28;20076;-56
2022/11/04 10:33:31;;;;;;;17.85;8.77;;;;;;;20.19;39.69;97318.94;10333877;28;20064;-56
2022/11/04 10:38:37;;;;;;;18.95;9.40;;;;;;;20.29;39.29;97308.84;10371753;28;20591;-55
2022/11/04 10:43:38;;;;;;;17.85;9.02;;;;;;;20.24;38.41;97306.41;10332614;28;20072;-56
2022/11/04 10:49:04;;;;;;;15.25;8.80;;;;;;;20.29;37.77;97288.59;10346640;28;20123;-56
2022/11/04 10:54:07;;;;;;;18.17;9.20;;;;;;;20.32;37.50;97286.75;10368444;28;20453;-56
2022/11/04 10:59:26;;;;;;;17.85;8.23;;;;;;;20.47;37.36;97286.91;10378559;28;20727;-56
2022/11/04 11:04:27;;;;;;;16.08;9.00;;;;;;;20.63;36.95;97281.75;10377998;28;20073;-56
2022/11/04 11:09:29;;;;;;;19.13;9.38;;;;;;;20.67;35.93;97270.09;10377833;28;20110;-56
2022/11/04 11:14:28;;;;;;;15.05;8.25;;;;;;;20.81;35.87;97256.22;10380164;28;20072;-56
2022/11/04 11:19:30;;;;;;;16.02;8.05;;;;;;;20.94;35.06;97251.19;10375878;28;20021;-56
2022/11/04 11:24:29;;;;;;;12.30;7.25;;;;;;;21.09;34.76;97237.22;10379563;28;20084;-56
2022/11/04 11:29:39;;;;;;;15.32;8.05;;;;;;;21.21;34.90;97229.63;10379506;28;20080;-55
2022/11/04 11:34:38;;;;;;;15.82;7.75;;;;;;;21.29;34.17;97224.81;10379713;28;20211;-56
2022/11/04 11:39:37;;;;;;;18.75;8.40;;;;;;;21.43;34.62;97209.09;10379517;28;20056;-54
2022/11/04 11:44:43;;;;;;;24.63;7.20;;;;;;;21.55;33.73;97208.44;10378932;28;20025;-55
2022/11/04 11:49:42;;;;;;;12.13;7.57;;;;;;;21.65;33.16;97206.13;10375231;28;20077;-55
2022/11/04 11:54:43;;;;;;;18.20;7.22;;;;;;;21.64;32.30;97201.81;10377583;28;20481;-55
2022/11/04 11:59:48;;;;;;;14.75;6.90;;;;;;;21.71;32.21;97197.00;10373770;28;20071;-55
2022/11/04 12:04:48;;;;;;;17.25;7.18;;;;;;;21.77;32.06;97186.97;10373537;28;20148;-54
2022/11/04 12:10:01;;;;;;;18.88;7.72;;;;;;;21.87;32.31;97176.75;10371760;28;20507;-55
2022/11/04 12:15:11;;;;;;;13.40;7.20;;;;;;;22.00;32.20;97181.41;10371283;28;20116;-55
2022/11/04 12:20:17;;;;;;;13.95;7.28;;;;;;;22.21;31.61;97174.88;10370432;28;20053;-55
2022/11/04 12:25:29;;;;;;;14.38;7.03;;;;;;;22.42;31.42;97167.50;10370307;28;20582;-54
2022/11/04 12:30:38;;;;;;;17.25;7.30;;;;;;;22.56;31.39;97164.91;10371534;28;20076;-55
2022/11/04 12:35:43;;;;;;;13.80;7.57;;;;;;;22.68;31.33;97167.78;10374186;28;20071;-55
2022/11/04 12:41:00;;;;;;;21.02;7.63;;;;;;;22.76;30.84;97163.78;10375212;28;20064;-55
2022/11/04 12:46:35;;;;;;;18.58;6.78;;;;;;;22.96;30.89;97177.59;10375195;28;20409;-55
2022/11/04 12:51:52;;;;;;;21.08;7.53;;;;;;;22.86;30.52;97166.72;10375656;28;20080;-55
2022/11/04 12:57:17;;;;;;;15.10;7.57;;;;;;;22.69;31.01;97164.16;10374856;28;20340;-55
2022/11/04 13:02:26;;;;;;;16.33;8.18;;;;;;;22.54;31.47;97171.22;10372663;28;20083;-55
2022/11/04 13:07:30;;;;;;;;;;;;;;;22.39;31.10;97173.84;10374613;28;20060;-55
2022/11/04 13:12:35;;;;;;;15.75;7.25;;;;;;;22.39;31.46;97168.53;10375117;28;19959;-55
2022/11/04 13:17:38;;;;;;;15.82;7.07;;;;;;;22.44;32.05;97167.44;10373729;28;20559;-55
2022/11/04 13:22:39;;;;;;;14.32;8.02;;;;;;;22.36;31.57;97160.78;10372532;28;20468;-55
2022/11/04 13:27:44;;;;;;;17.88;7.10;;;;;;;22.43;31.60;97168.34;10374384;28;20064;-55
2022/11/04 13:33:01;;;;;;;15.32;7.20;;;;;;;22.43;32.02;97169.19;10372859;28;20079;-54
2022/11/04 13:38:13;;;;;;;15.80;8.07;;;;;;;22.29;32.14;97172.63;10372736;28;20075;-54
2022/11/04 13:49:05;;;;;;;17.77;7.85;;;;;;;21.92;32.37;97168.56;10372913;28;20080;-54
2022/11/04 13:54:05;;;;;;;12.82;7.30;;;;;;;21.49;33.12;97171.78;10372737;28;20067;-54
2022/11/04 13:59:16;;;;;;;18.98;7.82;;;;;;;21.16;33.85;97161.22;10370313;28;20072;-54
2022/11/04 14:04:27;;;;;;;15.20;8.10;;;;;;;20.93;34.43;97159.81;10372745;28;20480;-54
2022/11/04 14:09:29;;;;;;;17.10;8.88;;;;;;;20.74;35.00;97145.88;10371054;28;20076;-56
2022/11/04 14:14:28;;;;;;;15.85;8.85;;;;;;;20.35;35.75;97154.84;10374222;28;20483;-56
2022/11/04 14:19:46;;;;;;;13.90;8.05;;;;;;;20.05;36.30;97152.81;10359419;28;20574;-56
2022/11/04 14:24:56;;;;;;;19.47;10.03;;;;;;;19.80;36.98;97148.72;10333232;28;20080;-56
2022/11/04 14:29:57;;;;;;;15.15;8.95;;;;;;;19.56;38.01;97152.50;10356329;28;20072;-56
2022/11/04 14:35:03;;;;;;;18.83;9.15;;;;;;;19.32;38.29;97155.31;10373270;28;20060;-56
2022/11/04 14:40:07;;;;;;;20.08;10.15;;;;;;;19.12;38.84;97150.94;10373829;28;20060;-55
2022/11/04 14:45:11;;;;;;;15.65;10.05;;;;;;;18.88;39.25;97142.41;10373255;28;20075;-56
2022/11/04 14:50:27;;;;;;;16.33;10.00;;;;;;;18.76;39.61;97142.91;10373381;28;20072;-56
2022/11/04 14:55:30;;;;;;;23.15;10.60;;;;;;;18.57;40.41;97138.44;10373331;28;20071;-55
2022/11/04 15:00:57;;;;;;;20.65;10.52;;;;;;;18.46;40.71;97135.41;10373552;28;20638;-56
2022/11/04 15:06:02;;;;;;;19.52;10.80;;;;;;;18.35;41.47;97137.63;10369137;28;20076;-56
2022/11/04 15:11:12;;;;;;;15.07;10.15;;;;;;;18.25;41.76;97129.28;10371799;28;20077;-56
2022/11/04 15:16:19;;;;;;;22.00;11.25;;;;;;;18.10;41.95;97120.25;10372378;28;20072;-56
2022/11/04 15:21:18;;;;;;;24.90;9.68;;;;;;;18.04;42.07;97123.16;10373092;28;20072;-55
2022/11/04 15:26:31;;;;;;;19.58;10.55;;;;;;;17.97;41.88;97119.94;10372030;28;20070;-56
2022/11/04 15:31:32;;;;;;;21.98;9.63;;;;;;;17.92;41.65;97118.41;10368931;28;20519;-55
2022/11/04 15:36:33;;;;;;;18.17;9.82;;;;;;;17.88;41.73;97125.53;10380567;28;20071;-56
2022/11/04 15:46:53;;;;;;;23.67;10.43;;;;;;;17.73;41.78;97129.63;10374806;28;20061;-56
2022/11/04 15:52:18;;;;;;;15.38;10.27;;;;;;;17.62;42.25;97129.19;10375334;28;20076;-55
2022/11/04 15:57:32;;;;;;;16.88;10.40;;;;;;;17.48;42.91;97141.97;10373736;28;20068;-56
2022/11/04 16:02:36;;;;;;;19.50;10.65;;;;;;;17.37;43.30;97134.50;10372959;28;20156;-56
2022/11/04 16:07:37;;;;;;;22.33;10.43;;;;;;;17.21;43.56;97147.34;10374699;28;20730;-56
2022/11/04 16:12:37;;;;;;;17.15;10.38;;;;;;;17.13;44.05;97147.63;10376912;28;20091;-55
2022/11/04 16:17:43;;;;;;;22.05;11.82;;;;;;;17.05;44.16;97152.31;10376764;28;20064;-56
2022/11/04 16:22:43;;;;;;;24.13;10.43;;;;;;;16.96;44.56;97157.00;10375915;28;20060;-56
2022/11/04 16:27:44;;;;;;;20.55;11.02;;;;;;;16.87;44.67;97151.22;10375739;28;20069;-56
2022/11/04 16:32:53;;;;;;;15.40;10.43;;;;;;;16.82;44.75;97147.06;10376458;28;20057;-56
2022/11/04 16:37:54;;;;;;;24.63;12.00;;;;;;;16.77;45.01;97152.44;10374050;28;20071;-56
2022/11/04 16:42:53;;;;;;;17.27;10.85;;;;;;;16.77;45.07;97157.66;10375094;28;20095;-56
2022/11/04 16:47:53;;;;;;;;;;;;;;;16.78;45.00;97148.88;10376041;28;20096;-56
2022/11/04 16:52:52;;;;;;;22.70;10.25;;;;;;;16.79;44.99;97141.88;10375550;28;20407;-56
2022/11/04 16:57:59;;;;;;;19.35;10.00;;;;;;;16.81;44.59;97138.31;10374846;28;20064;-56
2022/11/04 17:03:00;;;;;;;19.05;10.70;;;;;;;16.76;44.49;97131.50;10375162;28;20075;-56
2022/11/04 17:07:59;;;;;;;25.58;12.68;;;;;;;16.74;44.52;97144.66;10374786;28;20084;-56
2022/11/04 17:12:57;;;;;;;;;;;;;;;16.75;44.53;97141.16;10375068;28;20036;-55
2022/11/04 17:17:56;;;;;;;20.50;10.03;;;;;;;16.74;44.28;97147.28;10374637;28;19970;-56
2022/11/04 17:22:55;;;;;;;;;;;;;;;16.73;44.40;97140.34;10375401;28;20108;-56
2022/11/04 17:27:54;;;;;;;22.30;10.57;;;;;;;16.70;44.46;97141.31;10374231;28;19915;-56
2022/11/04 17:32:53;;;;;;;;;;;;;;;16.69;44.57;97143.97;10374914;28;20396;-56
2022/11/04 17:37:53;;;;;;;28.63;10.20;;;;;;;16.72;44.85;97156.94;10373894;28;19913;-56
2022/11/04 17:48:12;;;;;;;17.63;10.23;;;;;;;16.49;45.36;97106.25;10373543;28;20092;-55
2022/11/04 17:53:11;;;;;;;20.13;10.30;;;;;;;16.60;45.13;97128.56;10372794;28;20083;-56
2022/11/04 17:58:10;;;;;;;;;;;;;;;16.59;44.78;97122.47;10374166;28;20072;-55
2022/11/04 18:03:10;;;;;;;20.10;11.27;;;;;;;16.61;44.45;97117.19;10372953;28;19956;-56
2022/11/04 18:08:09;;;;;;;19.27;10.15;;;;;;;16.70;43.87;97125.59;10372446;28;20079;-56
2022/11/04 18:13:08;;;;;;;;;;;;;;;16.72;43.73;97118.53;10373088;28;20105;-56
2022/11/04 18:18:07;;;;;;;17.50;9.27;;;;;;;16.75;43.66;97130.66;10373953;28;19959;-56
2022/11/04 18:23:06;;;;;;;;;;;;;;;16.74;43.46;97136.78;10372811;28;20108;-56
2022/11/04 18:28:05;;;;;;;21.55;9.52;;;;;;;16.73;43.58;97124.63;10372053;28;19915;-56
2022/11/04 18:33:04;;;;;;;17.60;9.43;;;;;;;16.67;43.57;97119.59;10371864;28;20627;-56
2022/11/04 18:38:03;;;;;;;;;;;;;;;16.67;43.43;97137.91;10372778;28;20598;-56
2022/11/04 18:43:02;;;;;;;18.03;8.97;;;;;;;16.59;43.44;97127.72;10371447;28;20277;-56
2022/11/04 18:48:01;;;;;;;;;;;;;;;16.61;43.41;97131.16;10371926;28;20049;-56
2022/11/04 18:53:00;;;;;;;24.95;13.90;;;;;;;16.55;43.90;97146.22;10372213;28;19912;-56
2022/11/04 18:57:58;;;;;;;;;;;;;;;16.37;44.24;97137.22;10372247;28;20044;-56
2022/11/04 19:02:58;;;;;;;28.58;14.75;;;;;;;16.07;45.06;97138.22;10371614;28;20004;-56
2022/11/04 19:07:57;;;;;;;24.15;14.70;;;;;;;15.88;45.48;97131.88;10376999;28;20551;-56
2022/11/04 19:18:15;;;;;;;23.05;16.70;;;;;;;15.60;46.10;97130.09;10379634;28;19984;-56
2022/11/04 19:23:13;;;;;;;34.55;18.25;;;;;;;15.47;46.55;97144.44;10378479;28;20075;-56
2022/11/04 19:28:12;;;;;;;;;;;;;;;15.38;46.47;97142.94;10379687;28;20028;-55
2022/11/04 19:33:11;;;;;;;27.67;15.85;;;;;;;15.25;46.69;97145.09;10378291;28;19920;-55
2022/11/04 19:38:10;;;;;;;23.02;15.65;;;;;;;15.19;46.70;97147.88;10378570;28;20135;-56
2022/11/04 19:43:09;;;;;;;26.67;15.05;;;;;;;15.05;47.45;97150.03;10378217;28;20017;-56
2022/11/04 19:48:08;;;;;;;32.10;17.15;;;;;;;14.80;47.97;97157.69;10377922;28;20106;-57
2022/11/04 19:53:07;;;;;;;28.90;17.80;;;;;;;14.52;49.41;97158.41;10377397;28;20073;-57
2022/11/04 19:58:06;;;;;;;33.40;22.63;;;;;;;14.26;50.36;97153.00;10378062;28;20059;-57
2022/11/04 20:03:05;;;;;;;32.00;20.60;;;;;;;14.11;50.82;97157.69;10377894;28;20040;-56
2022/11/04 20:08:06;;;;;;;31.67;21.17;;;;;;;14.09;50.58;97151.66;10377638;28;20431;-55
2022/11/04 20:18:23;;;;;;;32.28;22.40;;;;;;;14.02;50.79;97168.38;10376208;28;20068;-55
2022/11/04 20:23:22;;;;;;;33.47;21.98;;;;;;;13.90;51.33;97179.94;10375510;28;20041;-55
2022/11/04 20:28:21;;;;;;;35.70;26.15;;;;;;;13.84;51.73;97169.66;10375892;28;20481;-56
2022/11/04 20:33:20;;;;;;;44.45;30.08;;;;;;;13.71;52.26;97168.25;10376297;28;20575;-56
2022/11/04 20:38:19;;;;;;;37.15;25.70;;;;;;;13.56;52.39;97172.91;10375665;28;20547;-56
2022/11/04 20:43:18;;;;;;;44.60;30.30;;;;;;;13.61;52.44;97169.31;10376744;28;20369;-58
2022/11/04 20:48:17;;;;;;;34.40;25.60;;;;;;;13.50;52.71;97170.41;10375585;28;20061;-57
2022/11/04 20:53:16;;;;;;;36.90;24.25;;;;;;;13.42;53.16;97166.22;10375491;28;20490;-57
2022/11/04 20:58:15;;;;;;;29.27;16.73;;;;;;;13.25;53.74;97158.78;10375355;28;20075;-57
2022/11/04 21:03:14;;;;;;;25.10;16.10;;;;;;;13.19;53.95;97161.50;10375189;28;20108;-56
2022/11/04 21:08:12;;;;;;;23.10;14.68;;;;;;;13.05;54.05;97157.47;10375420;28;20108;-56
2022/11/04 21:13:11;;;;;;;25.52;14.80;;;;;;;12.90;54.76;97153.41;10374637;28;20039;-57
2022/11/04 21:18:11;;;;;;;32.22;15.18;;;;;;;12.99;54.44;97136.75;10374447;28;20033;-57
2022/11/04 21:23:12;;;;;;;23.10;14.75;;;;;;;13.19;54.48;97141.53;10374761;28;20072;-56
2022/11/04 21:28:12;;;;;;;32.78;16.92;;;;;;;13.28;53.64;97132.66;10373959;28;20061;-56
2022/11/04 21:33:11;;;;;;;28.70;18.23;;;;;;;13.23;53.88;97131.91;10373711;28;20076;-56
2022/11/04 21:38:12;;;;;;;;;;;;;;;13.26;54.09;97131.84;10374418;28;20091;-56
2022/11/04 21:43:12;;;;;;;26.70;18.55;;;;;;;13.25;54.04;97122.31;10373696;28;19959;-56
2022/11/04 21:48:11;;;;;;;33.10;19.00;;;;;;;13.32;53.87;97129.09;10373232;28;20076;-56
2022/11/04 21:53:10;;;;;;;31.63;17.80;;;;;;;13.30;54.16;97121.31;10373352;28;20140;-56
2022/11/04 21:58:09;;;;;;;29.10;17.67;;;;;;;13.35;54.25;97116.00;10372452;28;20039;-56
2022/11/04 22:03:09;;;;;;;26.10;16.70;;;;;;;13.38;54.25;97113.34;10373737;28;20031;-56
2022/11/04 22:08:17;;;;;;;29.58;17.75;;;;;;;13.47;54.12;97114.84;10372574;28;20076;-56
2022/11/04 22:13:16;;;;;;;28.05;16.63;;;;;;;13.45;54.24;97107.09;10372635;28;20056;-56
2022/11/04 22:18:15;;;;;;;37.80;22.35;;;;;;;13.54;53.94;97109.53;10372624;28;20521;-56
2022/11/04 22:23:14;;;;;;;38.35;24.50;;;;;;;13.53;53.94;97107.75;10372109;28;20083;-56
2022/11/04 22:28:18;;;;;;;25.08;16.63;;;;;;;13.52;53.65;97102.59;10371772;28;20065;-56
2022/11/04 22:33:16;;;;;;;47.03;29.85;;;;;;;13.53;54.16;97101.69;10372039;28;20512;-56
2022/11/04 22:38:15;;;;;;;47.65;29.55;;;;;;;13.51;53.63;97095.66;10372526;28;20502;-58
2022/11/04 22:43:14;;;;;;;53.78;37.53;;;;;;;13.46;53.82;97085.34;10378076;28;20198;-56
2022/11/04 22:48:13;;;;;;;51.20;31.55;;;;;;;13.44;54.08;97091.47;10380319;28;20045;-56
2022/11/04 22:53:12;;;;;;;51.55;34.03;;;;;;;13.36;54.35;97092.50;10380944;28;20056;-55
2022/11/04 22:58:11;;;;;;;26.33;19.20;;;;;;;13.28;54.57;97083.16;10380131;28;20496;-55
2022/11/04 23:03:11;;;;;;;29.00;17.33;;;;;;;13.29;54.23;97095.31;10379434;28;20500;-55
2022/11/04 23:08:10;;;;;;;44.03;27.38;;;;;;;13.30;54.50;97094.41;10379564;28;20060;-55
2022/11/04 23:18:41;;;;;;;37.67;23.05;;;;;;;13.21;54.96;97102.41;10379993;28;20072;-55
2022/11/04 23:39:33;;;;;;;29.95;17.85;;;;;;;13.20;54.50;97101.56;10379159;28;20080;-55
